sensor_id;sensor_type;location;lat;lon;timestamp;P1;durP1;ratioP1;P2;durP2;ratioP2
33593;SDS011;19920;52.242;20.940;2023-04-24T00:00:41;11.85;;;7.57;;
33593;SDS011;19920;52.242;20.940;2023-04-24T00:03:07;15.48;;;7.95;;
33593;SDS011;19920;52.242;20.940;2023-04-24T00:05:32;11.68;;;7.38;;
33593;SDS011;19920;52.242;20.940;2023-04-24T00:07:58;11.63;;;7.85;;
33593;SDS011;19920;52.242;20.940;2023-04-24T00:10:25;11.10;;;7.57;;
33593;SDS011;19920;52.242;20.940;2023-04-24T00:12:50;13.15;;;8.23;;
33593;SDS011;19920;52.242;20.940;2023-04-24T00:15:16;12.13;;;7.88;;
33593;SDS011;19920;52.242;20.940;2023-04-24T00:17:42;14.27;;;8.38;;
33593;SDS011;19920;52.242;20.940;2023-04-24T00:20:07;8.95;;;7.35;;
33593;SDS011;19920;52.242;20.940;2023-04-24T00:22:35;10.15;;;7.70;;
33593;SDS011;19920;52.242;20.940;2023-04-24T00:25:00;13.43;;;8.23;;
33593;SDS011;19920;52.242;20.940;2023-04-24T00:27:26;11.75;;;7.88;;
33593;SDS011;19920;52.242;20.940;2023-04-24T00:29:52;11.70;;;7.97;;
33593;SDS011;19920;52.242;20.940;2023-04-24T00:32:17;12.43;;;8.05;;
33593;SDS011;19920;52.242;20.940;2023-04-24T00:34:43;11.43;;;7.65;;
33593;SDS011;19920;52.242;20.940;2023-04-24T00:37:09;12.18;;;8.38;;
33593;SDS011;19920;52.242;20.940;2023-04-24T00:39:36;14.68;;;8.18;;
33593;SDS011;19920;52.242;20.940;2023-04-24T00:42:02;14.02;;;8.57;;
33593;SDS011;19920;52.242;20.940;2023-04-24T00:44:28;9.93;;;8.13;;
33593;SDS011;19920;52.242;20.940;2023-04-24T00:46:53;13.23;;;8.38;;
33593;SDS011;19920;52.242;20.940;2023-04-24T00:49:20;13.45;;;8.55;;
33593;SDS011;19920;52.242;20.940;2023-04-24T00:51:46;11.30;;;8.55;;
33593;SDS011;19920;52.242;20.940;2023-04-24T00:54:12;12.40;;;8.32;;
33593;SDS011;19920;52.242;20.940;2023-04-24T00:56:39;11.27;;;8.02;;
33593;SDS011;19920;52.242;20.940;2023-04-24T00:59:05;11.20;;;8.20;;
33593;SDS011;19920;52.242;20.940;2023-04-24T01:01:31;13.25;;;8.25;;
33593;SDS011;19920;52.242;20.940;2023-04-24T01:03:57;10.95;;;8.35;;
33593;SDS011;19920;52.242;20.940;2023-04-24T01:06:26;11.43;;;8.15;;
33593;SDS011;19920;52.242;20.940;2023-04-24T01:08:53;16.13;;;8.25;;
33593;SDS011;19920;52.242;20.940;2023-04-24T01:11:20;11.18;;;7.45;;
33593;SDS011;19920;52.242;20.940;2023-04-24T01:13:47;11.63;;;7.80;;
33593;SDS011;19920;52.242;20.940;2023-04-24T01:16:13;11.82;;;7.93;;
33593;SDS011;19920;52.242;20.940;2023-04-24T01:18:40;14.02;;;7.90;;
33593;SDS011;19920;52.242;20.940;2023-04-24T01:21:06;14.48;;;8.30;;
33593;SDS011;19920;52.242;20.940;2023-04-24T01:23:34;12.20;;;8.10;;
33593;SDS011;19920;52.242;20.940;2023-04-24T01:26:00;11.88;;;8.35;;
33593;SDS011;19920;52.242;20.940;2023-04-24T01:28:26;11.65;;;8.05;;
33593;SDS011;19920;52.242;20.940;2023-04-24T01:30:52;11.32;;;7.97;;
33593;SDS011;19920;52.242;20.940;2023-04-24T01:33:18;9.88;;;7.97;;
33593;SDS011;19920;52.242;20.940;2023-04-24T01:35:46;14.25;;;8.43;;
33593;SDS011;19920;52.242;20.940;2023-04-24T01:38:12;12.75;;;8.35;;
33593;SDS011;19920;52.242;20.940;2023-04-24T01:40:37;13.60;;;8.98;;
33593;SDS011;19920;52.242;20.940;2023-04-24T01:43:03;9.60;;;7.63;;
33593;SDS011;19920;52.242;20.940;2023-04-24T01:45:29;14.52;;;8.00;;
33593;SDS011;19920;52.242;20.940;2023-04-24T01:47:55;13.20;;;7.93;;
33593;SDS011;19920;52.242;20.940;2023-04-24T01:50:21;15.75;;;8.55;;
33593;SDS011;19920;52.242;20.940;2023-04-24T01:52:46;10.45;;;7.88;;
33593;SDS011;19920;52.242;20.940;2023-04-24T01:55:12;12.85;;;8.57;;
33593;SDS011;19920;52.242;20.940;2023-04-24T01:57:38;11.40;;;8.20;;
33593;SDS011;19920;52.242;20.940;2023-04-24T02:00:04;14.38;;;8.02;;
33593;SDS011;19920;52.242;20.940;2023-04-24T02:02:32;12.52;;;8.32;;
33593;SDS011;19920;52.242;20.940;2023-04-24T02:04:57;14.15;;;8.48;;
33593;SDS011;19920;52.242;20.940;2023-04-24T02:07:23;11.23;;;8.38;;
33593;SDS011;19920;52.242;20.940;2023-04-24T02:09:49;12.85;;;8.80;;
33593;SDS011;19920;52.242;20.940;2023-04-24T02:12:15;17.13;;;9.20;;
33593;SDS011;19920;52.242;20.940;2023-04-24T02:14:42;15.00;;;7.95;;
33593;SDS011;19920;52.242;20.940;2023-04-24T02:17:08;14.63;;;9.18;;
33593;SDS011;19920;52.242;20.940;2023-04-24T02:19:34;11.73;;;8.75;;
33593;SDS011;19920;52.242;20.940;2023-04-24T02:22:00;12.10;;;8.68;;
33593;SDS011;19920;52.242;20.940;2023-04-24T02:24:26;11.07;;;8.07;;
33593;SDS011;19920;52.242;20.940;2023-04-24T02:26:51;12.85;;;8.65;;
33593;SDS011;19920;52.242;20.940;2023-04-24T02:29:17;15.48;;;8.93;;
33593;SDS011;19920;52.242;20.940;2023-04-24T02:31:42;14.35;;;9.18;;
33593;SDS011;19920;52.242;20.940;2023-04-24T02:34:08;11.60;;;8.77;;
33593;SDS011;19920;52.242;20.940;2023-04-24T02:36:34;13.50;;;8.55;;
33593;SDS011;19920;52.242;20.940;2023-04-24T02:39:00;15.20;;;9.02;;
33593;SDS011;19920;52.242;20.940;2023-04-24T02:41:26;12.02;;;8.60;;
33593;SDS011;19920;52.242;20.940;2023-04-24T02:43:56;12.30;;;9.25;;
33593;SDS011;19920;52.242;20.940;2023-04-24T02:46:25;14.35;;;9.50;;
33593;SDS011;19920;52.242;20.940;2023-04-24T02:48:51;14.45;;;8.40;;
33593;SDS011;19920;52.242;20.940;2023-04-24T02:51:16;16.27;;;9.88;;
33593;SDS011;19920;52.242;20.940;2023-04-24T02:53:42;13.98;;;8.95;;
33593;SDS011;19920;52.242;20.940;2023-04-24T02:56:08;12.43;;;8.93;;
33593;SDS011;19920;52.242;20.940;2023-04-24T02:58:33;14.93;;;9.32;;
33593;SDS011;19920;52.242;20.940;2023-04-24T03:01:00;14.75;;;9.85;;
33593;SDS011;19920;52.242;20.940;2023-04-24T03:03:26;15.73;;;9.20;;
33593;SDS011;19920;52.242;20.940;2023-04-24T03:05:51;15.23;;;9.30;;
33593;SDS011;19920;52.242;20.940;2023-04-24T03:08:17;13.57;;;8.95;;
33593;SDS011;19920;52.242;20.940;2023-04-24T03:10:43;16.55;;;10.43;;
33593;SDS011;19920;52.242;20.940;2023-04-24T03:13:08;13.73;;;9.90;;
33593;SDS011;19920;52.242;20.940;2023-04-24T03:15:34;17.52;;;9.40;;
33593;SDS011;19920;52.242;20.940;2023-04-24T03:18:00;13.35;;;9.27;;
33593;SDS011;19920;52.242;20.940;2023-04-24T03:20:26;16.73;;;9.80;;
33593;SDS011;19920;52.242;20.940;2023-04-24T03:22:52;12.60;;;9.45;;
33593;SDS011;19920;52.242;20.940;2023-04-24T03:25:17;12.73;;;9.02;;
33593;SDS011;19920;52.242;20.940;2023-04-24T03:27:43;15.50;;;8.75;;
33593;SDS011;19920;52.242;20.940;2023-04-24T03:30:09;15.65;;;9.00;;
33593;SDS011;19920;52.242;20.940;2023-04-24T03:32:35;13.32;;;8.90;;
33593;SDS011;19920;52.242;20.940;2023-04-24T03:35:01;15.90;;;9.18;;
33593;SDS011;19920;52.242;20.940;2023-04-24T03:37:26;14.70;;;9.20;;
33593;SDS011;19920;52.242;20.940;2023-04-24T03:39:52;10.38;;;8.32;;
33593;SDS011;19920;52.242;20.940;2023-04-24T03:42:18;12.25;;;8.52;;
33593;SDS011;19920;52.242;20.940;2023-04-24T03:44:43;15.00;;;8.73;;
33593;SDS011;19920;52.242;20.940;2023-04-24T03:47:09;14.50;;;8.77;;
33593;SDS011;19920;52.242;20.940;2023-04-24T03:49:35;12.32;;;8.38;;
33593;SDS011;19920;52.242;20.940;2023-04-24T03:52:00;12.40;;;7.95;;
33593;SDS011;19920;52.242;20.940;2023-04-24T03:54:26;12.82;;;8.05;;
33593;SDS011;19920;52.242;20.940;2023-04-24T03:56:52;14.88;;;9.02;;
33593;SDS011;19920;52.242;20.940;2023-04-24T03:59:17;15.05;;;8.05;;
33593;SDS011;19920;52.242;20.940;2023-04-24T04:01:44;14.48;;;8.43;;
33593;SDS011;19920;52.242;20.940;2023-04-24T04:04:10;15.80;;;7.90;;
33593;SDS011;19920;52.242;20.940;2023-04-24T04:06:36;11.93;;;8.20;;
33593;SDS011;19920;52.242;20.940;2023-04-24T04:09:02;12.18;;;8.43;;
33593;SDS011;19920;52.242;20.940;2023-04-24T04:11:28;17.40;;;8.10;;
33593;SDS011;19920;52.242;20.940;2023-04-24T04:13:54;35.58;;;9.60;;
33593;SDS011;19920;52.242;20.940;2023-04-24T04:16:20;26.02;;;9.07;;
33593;SDS011;19920;52.242;20.940;2023-04-24T04:18:46;30.75;;;8.88;;
33593;SDS011;19920;52.242;20.940;2023-04-24T04:21:11;15.27;;;8.88;;
33593;SDS011;19920;52.242;20.940;2023-04-24T04:23:37;13.70;;;8.32;;
33593;SDS011;19920;52.242;20.940;2023-04-24T04:26:03;13.77;;;8.05;;
33593;SDS011;19920;52.242;20.940;2023-04-24T04:28:30;11.52;;;7.90;;
33593;SDS011;19920;52.242;20.940;2023-04-24T04:30:56;13.70;;;8.07;;
33593;SDS011;19920;52.242;20.940;2023-04-24T04:33:22;14.55;;;8.40;;
33593;SDS011;19920;52.242;20.940;2023-04-24T04:35:48;13.07;;;9.10;;
33593;SDS011;19920;52.242;20.940;2023-04-24T04:38:14;13.10;;;8.57;;
33593;SDS011;19920;52.242;20.940;2023-04-24T04:40:41;19.50;;;10.73;;
33593;SDS011;19920;52.242;20.940;2023-04-24T04:43:07;16.98;;;9.27;;
33593;SDS011;19920;52.242;20.940;2023-04-24T04:45:33;15.13;;;8.60;;
33593;SDS011;19920;52.242;20.940;2023-04-24T04:47:59;20.42;;;9.15;;
33593;SDS011;19920;52.242;20.940;2023-04-24T04:50:26;12.40;;;9.05;;
33593;SDS011;19920;52.242;20.940;2023-04-24T04:52:52;13.85;;;9.38;;
33593;SDS011;19920;52.242;20.940;2023-04-24T04:55:18;14.82;;;8.80;;
33593;SDS011;19920;52.242;20.940;2023-04-24T04:57:46;16.73;;;9.15;;
33593;SDS011;19920;52.242;20.940;2023-04-24T05:00:13;13.30;;;8.77;;
33593;SDS011;19920;52.242;20.940;2023-04-24T05:02:39;14.57;;;9.13;;
33593;SDS011;19920;52.242;20.940;2023-04-24T05:05:05;16.25;;;8.95;;
33593;SDS011;19920;52.242;20.940;2023-04-24T05:07:31;15.20;;;8.65;;
33593;SDS011;19920;52.242;20.940;2023-04-24T05:09:57;19.10;;;9.02;;
33593;SDS011;19920;52.242;20.940;2023-04-24T05:12:23;18.35;;;8.85;;
33593;SDS011;19920;52.242;20.940;2023-04-24T05:14:48;23.42;;;9.20;;
33593;SDS011;19920;52.242;20.940;2023-04-24T05:17:14;13.93;;;8.27;;
33593;SDS011;19920;52.242;20.940;2023-04-24T05:19:40;14.50;;;8.82;;
33593;SDS011;19920;52.242;20.940;2023-04-24T05:22:06;25.90;;;9.60;;
33593;SDS011;19920;52.242;20.940;2023-04-24T05:24:35;15.05;;;8.73;;
33593;SDS011;19920;52.242;20.940;2023-04-24T05:27:04;18.73;;;9.10;;
33593;SDS011;19920;52.242;20.940;2023-04-24T05:29:31;17.63;;;8.32;;
33593;SDS011;19920;52.242;20.940;2023-04-24T05:31:58;18.33;;;8.57;;
33593;SDS011;19920;52.242;20.940;2023-04-24T05:34:23;19.60;;;8.80;;
33593;SDS011;19920;52.242;20.940;2023-04-24T05:36:49;17.00;;;9.10;;
33593;SDS011;19920;52.242;20.940;2023-04-24T05:39:16;22.88;;;8.90;;
33593;SDS011;19920;52.242;20.940;2023-04-24T05:41:42;15.82;;;8.35;;
33593;SDS011;19920;52.242;20.940;2023-04-24T05:44:08;18.75;;;8.45;;
33593;SDS011;19920;52.242;20.940;2023-04-24T05:46:34;15.00;;;8.23;;
33593;SDS011;19920;52.242;20.940;2023-04-24T05:49:00;17.55;;;8.77;;
33593;SDS011;19920;52.242;20.940;2023-04-24T05:51:25;21.23;;;8.55;;
33593;SDS011;19920;52.242;20.940;2023-04-24T05:53:51;18.10;;;9.52;;
33593;SDS011;19920;52.242;20.940;2023-04-24T05:56:17;19.67;;;8.50;;
33593;SDS011;19920;52.242;20.940;2023-04-24T05:58:43;17.92;;;8.90;;
33593;SDS011;19920;52.242;20.940;2023-04-24T06:01:09;13.15;;;8.25;;
33593;SDS011;19920;52.242;20.940;2023-04-24T06:03:35;18.95;;;8.15;;
33593;SDS011;19920;52.242;20.940;2023-04-24T06:06:01;20.95;;;8.85;;
33593;SDS011;19920;52.242;20.940;2023-04-24T06:08:26;19.67;;;8.65;;
33593;SDS011;19920;52.242;20.940;2023-04-24T06:10:52;13.00;;;8.40;;
33593;SDS011;19920;52.242;20.940;2023-04-24T06:13:18;16.77;;;7.85;;
33593;SDS011;19920;52.242;20.940;2023-04-24T06:15:43;16.25;;;7.68;;
33593;SDS011;19920;52.242;20.940;2023-04-24T06:18:09;16.85;;;8.32;;
33593;SDS011;19920;52.242;20.940;2023-04-24T06:20:38;16.30;;;8.65;;
33593;SDS011;19920;52.242;20.940;2023-04-24T06:23:04;21.95;;;8.15;;
33593;SDS011;19920;52.242;20.940;2023-04-24T06:25:29;18.95;;;8.05;;
33593;SDS011;19920;52.242;20.940;2023-04-24T06:27:55;21.23;;;7.90;;
33593;SDS011;19920;52.242;20.940;2023-04-24T06:30:21;16.17;;;8.13;;
33593;SDS011;19920;52.242;20.940;2023-04-24T06:32:47;16.00;;;7.93;;
33593;SDS011;19920;52.242;20.940;2023-04-24T06:35:13;18.52;;;8.30;;
33593;SDS011;19920;52.242;20.940;2023-04-24T06:37:39;15.18;;;7.82;;
33593;SDS011;19920;52.242;20.940;2023-04-24T06:40:06;19.70;;;8.20;;
33593;SDS011;19920;52.242;20.940;2023-04-24T06:42:33;20.63;;;7.90;;
33593;SDS011;19920;52.242;20.940;2023-04-24T06:44:59;15.73;;;7.38;;
33593;SDS011;19920;52.242;20.940;2023-04-24T06:47:26;18.40;;;7.95;;
33593;SDS011;19920;52.242;20.940;2023-04-24T06:49:51;12.85;;;7.60;;
33593;SDS011;19920;52.242;20.940;2023-04-24T06:52:18;13.20;;;7.97;;
33593;SDS011;19920;52.242;20.940;2023-04-24T06:54:44;13.90;;;7.85;;
33593;SDS011;19920;52.242;20.940;2023-04-24T06:57:10;22.17;;;8.30;;
33593;SDS011;19920;52.242;20.940;2023-04-24T06:59:35;15.90;;;8.13;;
33593;SDS011;19920;52.242;20.940;2023-04-24T07:02:02;16.38;;;8.50;;
33593;SDS011;19920;52.242;20.940;2023-04-24T07:04:28;14.90;;;8.27;;
33593;SDS011;19920;52.242;20.940;2023-04-24T07:06:54;14.98;;;7.82;;
33593;SDS011;19920;52.242;20.940;2023-04-24T07:09:21;13.90;;;7.75;;
33593;SDS011;19920;52.242;20.940;2023-04-24T07:11:48;15.45;;;8.20;;
33593;SDS011;19920;52.242;20.940;2023-04-24T07:14:14;19.73;;;8.57;;
33593;SDS011;19920;52.242;20.940;2023-04-24T07:16:40;14.20;;;7.88;;
33593;SDS011;19920;52.242;20.940;2023-04-24T07:19:06;15.13;;;7.93;;
33593;SDS011;19920;52.242;20.940;2023-04-24T07:21:32;12.93;;;7.60;;
33593;SDS011;19920;52.242;20.940;2023-04-24T07:23:58;14.93;;;7.43;;
33593;SDS011;19920;52.242;20.940;2023-04-24T07:26:25;16.33;;;8.30;;
33593;SDS011;19920;52.242;20.940;2023-04-24T07:28:52;13.27;;;7.30;;
33593;SDS011;19920;52.242;20.940;2023-04-24T07:31:18;11.57;;;7.43;;
33593;SDS011;19920;52.242;20.940;2023-04-24T07:33:44;13.05;;;7.50;;
33593;SDS011;19920;52.242;20.940;2023-04-24T07:36:09;15.07;;;7.53;;
33593;SDS011;19920;52.242;20.940;2023-04-24T07:38:40;15.55;;;7.65;;
33593;SDS011;19920;52.242;20.940;2023-04-24T07:41:07;15.30;;;7.97;;
33593;SDS011;19920;52.242;20.940;2023-04-24T07:43:32;12.88;;;7.15;;
33593;SDS011;19920;52.242;20.940;2023-04-24T07:45:58;10.93;;;6.93;;
33593;SDS011;19920;52.242;20.940;2023-04-24T07:48:24;11.15;;;6.82;;
33593;SDS011;19920;52.242;20.940;2023-04-24T07:50:51;15.40;;;6.70;;
33593;SDS011;19920;52.242;20.940;2023-04-24T07:53:17;17.10;;;6.45;;
33593;SDS011;19920;52.242;20.940;2023-04-24T07:55:43;15.27;;;7.38;;
33593;SDS011;19920;52.242;20.940;2023-04-24T07:58:08;14.55;;;7.80;;
33593;SDS011;19920;52.242;20.940;2023-04-24T08:00:34;14.68;;;7.22;;
33593;SDS011;19920;52.242;20.940;2023-04-24T08:03:02;12.88;;;7.47;;
33593;SDS011;19920;52.242;20.940;2023-04-24T08:05:28;14.73;;;7.55;;
33593;SDS011;19920;52.242;20.940;2023-04-24T08:07:54;17.63;;;7.82;;
33593;SDS011;19920;52.242;20.940;2023-04-24T08:10:23;10.20;;;8.20;;
33593;SDS011;19920;52.242;20.940;2023-04-24T08:12:50;13.40;;;7.88;;
33593;SDS011;19920;52.242;20.940;2023-04-24T08:15:15;15.20;;;8.35;;
33593;SDS011;19920;52.242;20.940;2023-04-24T08:17:41;11.38;;;7.45;;
33593;SDS011;19920;52.242;20.940;2023-04-24T08:20:08;14.70;;;7.95;;
33593;SDS011;19920;52.242;20.940;2023-04-24T08:22:39;14.63;;;7.85;;
33593;SDS011;19920;52.242;20.940;2023-04-24T08:27:34;17.50;;;8.52;;
33593;SDS011;19920;52.242;20.940;2023-04-24T08:30:01;13.63;;;8.20;;
33593;SDS011;19920;52.242;20.940;2023-04-24T08:32:28;14.18;;;8.95;;
33593;SDS011;19920;52.242;20.940;2023-04-24T08:34:54;17.40;;;8.23;;
33593;SDS011;19920;52.242;20.940;2023-04-24T08:37:21;15.13;;;7.97;;
33593;SDS011;19920;52.242;20.940;2023-04-24T08:39:47;17.02;;;8.70;;
33593;SDS011;19920;52.242;20.940;2023-04-24T08:42:14;18.30;;;8.68;;
33593;SDS011;19920;52.242;20.940;2023-04-24T08:44:42;21.33;;;8.43;;
33593;SDS011;19920;52.242;20.940;2023-04-24T08:47:08;12.25;;;8.27;;
33593;SDS011;19920;52.242;20.940;2023-04-24T08:49:34;14.68;;;8.52;;
33593;SDS011;19920;52.242;20.940;2023-04-24T08:52:01;15.68;;;8.65;;
33593;SDS011;19920;52.242;20.940;2023-04-24T08:54:27;12.38;;;8.48;;
33593;SDS011;19920;52.242;20.940;2023-04-24T08:56:53;18.38;;;8.93;;
33593;SDS011;19920;52.242;20.940;2023-04-24T08:59:25;19.35;;;8.40;;
33593;SDS011;19920;52.242;20.940;2023-04-24T09:01:52;17.70;;;8.63;;
33593;SDS011;19920;52.242;20.940;2023-04-24T09:04:19;16.65;;;8.93;;
33593;SDS011;19920;52.242;20.940;2023-04-24T09:06:47;12.85;;;8.30;;
33593;SDS011;19920;52.242;20.940;2023-04-24T09:09:14;13.20;;;8.27;;
33593;SDS011;19920;52.242;20.940;2023-04-24T09:11:42;18.60;;;8.98;;
33593;SDS011;19920;52.242;20.940;2023-04-24T09:14:08;17.45;;;8.35;;
33593;SDS011;19920;52.242;20.940;2023-04-24T09:16:35;14.52;;;7.63;;
33593;SDS011;19920;52.242;20.940;2023-04-24T09:19:01;17.95;;;7.82;;
33593;SDS011;19920;52.242;20.940;2023-04-24T09:21:31;13.13;;;7.28;;
33593;SDS011;19920;52.242;20.940;2023-04-24T09:24:01;11.60;;;6.90;;
33593;SDS011;19920;52.242;20.940;2023-04-24T09:26:31;17.48;;;7.28;;
33593;SDS011;19920;52.242;20.940;2023-04-24T09:28:59;14.80;;;7.05;;
33593;SDS011;19920;52.242;20.940;2023-04-24T09:31:26;17.38;;;7.35;;
33593;SDS011;19920;52.242;20.940;2023-04-24T09:33:57;20.55;;;7.18;;
33593;SDS011;19920;52.242;20.940;2023-04-24T09:39:09;16.65;;;6.63;;
33593;SDS011;19920;52.242;20.940;2023-04-24T09:44:15;14.88;;;7.00;;
33593;SDS011;19920;52.242;20.940;2023-04-24T09:46:42;16.90;;;6.88;;
33593;SDS011;19920;52.242;20.940;2023-04-24T09:49:11;13.20;;;6.10;;
33593;SDS011;19920;52.242;20.940;2023-04-24T09:51:38;9.40;;;5.70;;
33593;SDS011;19920;52.242;20.940;2023-04-24T09:54:11;14.57;;;5.63;;
33593;SDS011;19920;52.242;20.940;2023-04-24T09:56:47;6.82;;;5.38;;
33593;SDS011;19920;52.242;20.940;2023-04-24T09:59:14;9.73;;;5.70;;
33593;SDS011;19920;52.242;20.940;2023-04-24T10:01:41;10.73;;;5.25;;
33593;SDS011;19920;52.242;20.940;2023-04-24T10:04:25;10.18;;;5.40;;
33593;SDS011;19920;52.242;20.940;2023-04-24T10:06:53;10.80;;;6.15;;
33593;SDS011;19920;52.242;20.940;2023-04-24T10:09:21;9.00;;;5.75;;
33593;SDS011;19920;52.242;20.940;2023-04-24T10:11:48;8.32;;;4.97;;
33593;SDS011;19920;52.242;20.940;2023-04-24T10:14:16;9.20;;;5.55;;
33593;SDS011;19920;52.242;20.940;2023-04-24T10:16:44;8.07;;;5.53;;
33593;SDS011;19920;52.242;20.940;2023-04-24T10:19:12;13.77;;;5.90;;
33593;SDS011;19920;52.242;20.940;2023-04-24T10:21:43;7.55;;;5.65;;
33593;SDS011;19920;52.242;20.940;2023-04-24T10:24:14;9.98;;;6.20;;
33593;SDS011;19920;52.242;20.940;2023-04-24T10:26:41;10.25;;;5.72;;
33593;SDS011;19920;52.242;20.940;2023-04-24T10:29:07;10.63;;;6.07;;
33593;SDS011;19920;52.242;20.940;2023-04-24T10:31:36;11.15;;;5.82;;
33593;SDS011;19920;52.242;20.940;2023-04-24T10:34:03;9.13;;;5.70;;
33593;SDS011;19920;52.242;20.940;2023-04-24T10:36:34;11.05;;;5.80;;
33593;SDS011;19920;52.242;20.940;2023-04-24T10:39:02;9.65;;;5.93;;
33593;SDS011;19920;52.242;20.940;2023-04-24T10:41:31;10.05;;;6.10;;
33593;SDS011;19920;52.242;20.940;2023-04-24T10:44:14;10.60;;;5.85;;
33593;SDS011;19920;52.242;20.940;2023-04-24T10:46:44;11.98;;;6.78;;
33593;SDS011;19920;52.242;20.940;2023-04-24T10:49:14;10.00;;;6.60;;
33593;SDS011;19920;52.242;20.940;2023-04-24T10:54:22;13.70;;;6.68;;
33593;SDS011;19920;52.242;20.940;2023-04-24T10:59:51;11.45;;;6.30;;
33593;SDS011;19920;52.242;20.940;2023-04-24T11:02:38;10.70;;;5.72;;
33593;SDS011;19920;52.242;20.940;2023-04-24T11:05:05;11.25;;;6.05;;
33593;SDS011;19920;52.242;20.940;2023-04-24T11:10:37;9.25;;;6.78;;
33593;SDS011;19920;52.242;20.940;2023-04-24T11:13:21;10.68;;;6.47;;
33593;SDS011;19920;52.242;20.940;2023-04-24T11:18:51;8.77;;;6.70;;
33593;SDS011;19920;52.242;20.940;2023-04-24T11:21:25;11.82;;;7.13;;
33593;SDS011;19920;52.242;20.940;2023-04-24T11:23:51;11.40;;;6.45;;
33593;SDS011;19920;52.242;20.940;2023-04-24T11:26:21;11.27;;;6.10;;
33593;SDS011;19920;52.242;20.940;2023-04-24T11:28:49;8.18;;;5.95;;
33593;SDS011;19920;52.242;20.940;2023-04-24T11:34:10;9.88;;;5.80;;
33593;SDS011;19920;52.242;20.940;2023-04-24T11:36:37;10.05;;;5.65;;
33593;SDS011;19920;52.242;20.940;2023-04-24T11:39:04;8.85;;;5.68;;
33593;SDS011;19920;52.242;20.940;2023-04-24T11:41:30;7.75;;;5.72;;
33593;SDS011;19920;52.242;20.940;2023-04-24T11:43:56;8.25;;;5.65;;
33593;SDS011;19920;52.242;20.940;2023-04-24T11:46:22;8.73;;;5.72;;
33593;SDS011;19920;52.242;20.940;2023-04-24T11:48:48;7.75;;;5.68;;
33593;SDS011;19920;52.242;20.940;2023-04-24T11:51:14;11.07;;;5.47;;
33593;SDS011;19920;52.242;20.940;2023-04-24T11:53:40;9.27;;;5.65;;
33593;SDS011;19920;52.242;20.940;2023-04-24T11:56:06;9.05;;;5.25;;
33593;SDS011;19920;52.242;20.940;2023-04-24T11:58:43;10.35;;;4.78;;
33593;SDS011;19920;52.242;20.940;2023-04-24T12:01:10;7.40;;;5.15;;
33593;SDS011;19920;52.242;20.940;2023-04-24T12:03:35;7.10;;;5.05;;
33593;SDS011;19920;52.242;20.940;2023-04-24T12:06:05;10.20;;;5.15;;
33593;SDS011;19920;52.242;20.940;2023-04-24T12:08:32;9.70;;;4.80;;
33593;SDS011;19920;52.242;20.940;2023-04-24T12:10:59;8.30;;;5.38;;
33593;SDS011;19920;52.242;20.940;2023-04-24T12:13:26;6.20;;;4.60;;
33593;SDS011;19920;52.242;20.940;2023-04-24T12:15:51;8.27;;;4.45;;
33593;SDS011;19920;52.242;20.940;2023-04-24T12:18:17;8.05;;;5.15;;
33593;SDS011;19920;52.242;20.940;2023-04-24T12:20:43;6.55;;;4.80;;
33593;SDS011;19920;52.242;20.940;2023-04-24T12:23:09;9.60;;;5.32;;
33593;SDS011;19920;52.242;20.940;2023-04-24T12:25:34;9.80;;;5.95;;
33593;SDS011;19920;52.242;20.940;2023-04-24T12:30:29;7.15;;;5.47;;
33593;SDS011;19920;52.242;20.940;2023-04-24T12:32:57;7.75;;;4.93;;
33593;SDS011;19920;52.242;20.940;2023-04-24T12:35:24;7.88;;;5.35;;
33593;SDS011;19920;52.242;20.940;2023-04-24T12:37:51;9.57;;;5.05;;
33593;SDS011;19920;52.242;20.940;2023-04-24T12:40:17;8.30;;;5.43;;
33593;SDS011;19920;52.242;20.940;2023-04-24T12:42:49;8.05;;;4.85;;
33593;SDS011;19920;52.242;20.940;2023-04-24T12:45:16;11.40;;;5.22;;
33593;SDS011;19920;52.242;20.940;2023-04-24T12:47:43;13.50;;;4.68;;
33593;SDS011;19920;52.242;20.940;2023-04-24T12:50:11;25.27;;;5.93;;
33593;SDS011;19920;52.242;20.940;2023-04-24T12:52:39;20.15;;;5.00;;
33593;SDS011;19920;52.242;20.940;2023-04-24T12:55:05;16.40;;;4.53;;
33593;SDS011;19920;52.242;20.940;2023-04-24T12:57:35;16.63;;;3.70;;
33593;SDS011;19920;52.242;20.940;2023-04-24T13:00:02;16.55;;;3.70;;
33593;SDS011;19920;52.242;20.940;2023-04-24T13:02:30;14.35;;;3.30;;
33593;SDS011;19920;52.242;20.940;2023-04-24T13:04:56;9.00;;;2.97;;
33593;SDS011;19920;52.242;20.940;2023-04-24T13:07:23;13.20;;;3.47;;
33593;SDS011;19920;52.242;20.940;2023-04-24T13:09:49;12.15;;;3.38;;
33593;SDS011;19920;52.242;20.940;2023-04-24T13:12:16;6.43;;;2.90;;
33593;SDS011;19920;52.242;20.940;2023-04-24T13:14:42;11.35;;;3.00;;
33593;SDS011;19920;52.242;20.940;2023-04-24T13:17:08;10.18;;;2.92;;
33593;SDS011;19920;52.242;20.940;2023-04-24T13:19:37;12.18;;;3.47;;
33593;SDS011;19920;52.242;20.940;2023-04-24T13:24:30;5.53;;;2.95;;
33593;SDS011;19920;52.242;20.940;2023-04-24T13:26:56;6.20;;;3.10;;
33593;SDS011;19920;52.242;20.940;2023-04-24T13:29:23;6.88;;;3.13;;
33593;SDS011;19920;52.242;20.940;2023-04-24T13:31:51;8.00;;;3.20;;
33593;SDS011;19920;52.242;20.940;2023-04-24T13:34:21;3.85;;;3.22;;
33593;SDS011;19920;52.242;20.940;2023-04-24T13:36:53;5.75;;;2.83;;
33593;SDS011;19920;52.242;20.940;2023-04-24T13:39:20;4.60;;;3.55;;
33593;SDS011;19920;52.242;20.940;2023-04-24T13:41:46;8.25;;;3.20;;
33593;SDS011;19920;52.242;20.940;2023-04-24T13:44:13;8.15;;;3.50;;
33593;SDS011;19920;52.242;20.940;2023-04-24T13:46:40;8.00;;;3.63;;
33593;SDS011;19920;52.242;20.940;2023-04-24T13:49:06;6.22;;;3.35;;
33593;SDS011;19920;52.242;20.940;2023-04-24T13:51:32;6.90;;;3.15;;
33593;SDS011;19920;52.242;20.940;2023-04-24T13:53:57;8.82;;;2.97;;
33593;SDS011;19920;52.242;20.940;2023-04-24T13:56:23;10.73;;;3.10;;
33593;SDS011;19920;52.242;20.940;2023-04-24T13:58:49;8.27;;;3.55;;
33593;SDS011;19920;52.242;20.940;2023-04-24T14:01:15;7.18;;;4.10;;
33593;SDS011;19920;52.242;20.940;2023-04-24T14:03:41;5.28;;;3.00;;
33593;SDS011;19920;52.242;20.940;2023-04-24T14:06:10;3.63;;;3.10;;
33593;SDS011;19920;52.242;20.940;2023-04-24T14:08:36;9.77;;;3.35;;
33593;SDS011;19920;52.242;20.940;2023-04-24T14:11:01;5.55;;;3.10;;
33593;SDS011;19920;52.242;20.940;2023-04-24T14:13:27;4.40;;;3.10;;
33593;SDS011;19920;52.242;20.940;2023-04-24T14:15:53;6.47;;;2.88;;
33593;SDS011;19920;52.242;20.940;2023-04-24T14:18:19;5.22;;;3.25;;
33593;SDS011;19920;52.242;20.940;2023-04-24T14:20:45;5.30;;;3.78;;
33593;SDS011;19920;52.242;20.940;2023-04-24T14:23:11;6.55;;;3.30;;
33593;SDS011;19920;52.242;20.940;2023-04-24T14:25:36;4.25;;;3.30;;
33593;SDS011;19920;52.242;20.940;2023-04-24T14:28:02;7.65;;;3.25;;
33593;SDS011;19920;52.242;20.940;2023-04-24T14:30:28;5.38;;;3.35;;
33593;SDS011;19920;52.242;20.940;2023-04-24T14:32:53;9.13;;;3.58;;
33593;SDS011;19920;52.242;20.940;2023-04-24T14:35:19;5.38;;;3.38;;
33593;SDS011;19920;52.242;20.940;2023-04-24T14:37:45;7.10;;;3.47;;
33593;SDS011;19920;52.242;20.940;2023-04-24T14:40:11;6.90;;;3.97;;
33593;SDS011;19920;52.242;20.940;2023-04-24T14:42:36;5.65;;;3.30;;
33593;SDS011;19920;52.242;20.940;2023-04-24T14:45:02;6.43;;;3.78;;
33593;SDS011;19920;52.242;20.940;2023-04-24T14:47:28;7.00;;;3.88;;